sensor_id;sensor_type;location;lat;lon;timestamp;P1;durP1;ratioP1;P2;durP2;ratioP2
21806;SDS011;11065;50.786;7.840;2023-08-12T00:01:02;5.17;;;3.07;;
21806;SDS011;11065;50.786;7.840;2023-08-12T00:03:30;5.20;;;3.37;;
21806;SDS011;11065;50.786;7.840;2023-08-12T00:05:58;4.47;;;3.33;;
21806;SDS011;11065;50.786;7.840;2023-08-12T00:08:28;9.70;;;3.33;;
21806;SDS011;11065;50.786;7.840;2023-08-12T00:10:56;4.60;;;3.03;;
21806;SDS011;11065;50.786;7.840;2023-08-12T00:13:24;6.43;;;3.73;;
21806;SDS011;11065;50.786;7.840;2023-08-12T00:15:52;5.27;;;3.50;;
21806;SDS011;11065;50.786;7.840;2023-08-12T00:18:21;5.63;;;3.33;;
21806;SDS011;11065;50.786;7.840;2023-08-12T00:20:49;6.00;;;3.27;;
21806;SDS011;11065;50.786;7.840;2023-08-12T00:23:17;8.37;;;3.53;;
21806;SDS011;11065;50.786;7.840;2023-08-12T00:25:45;7.43;;;3.17;;
21806;SDS011;11065;50.786;7.840;2023-08-12T00:28:13;4.63;;;3.47;;
21806;SDS011;11065;50.786;7.840;2023-08-12T00:30:41;4.57;;;3.60;;
21806;SDS011;11065;50.786;7.840;2023-08-12T00:33:09;5.80;;;3.37;;
21806;SDS011;11065;50.786;7.840;2023-08-12T00:35:38;6.37;;;3.43;;
21806;SDS011;11065;50.786;7.840;2023-08-12T00:38:06;6.70;;;3.70;;
21806;SDS011;11065;50.786;7.840;2023-08-12T00:40:34;5.77;;;3.30;;
21806;SDS011;11065;50.786;7.840;2023-08-12T00:43:02;5.43;;;2.83;;
21806;SDS011;11065;50.786;7.840;2023-08-12T00:45:30;4.63;;;3.40;;
21806;SDS011;11065;50.786;7.840;2023-08-12T00:47:58;4.63;;;3.70;;
21806;SDS011;11065;50.786;7.840;2023-08-12T00:50:27;5.43;;;3.40;;
21806;SDS011;11065;50.786;7.840;2023-08-12T00:52:58;6.63;;;3.53;;
21806;SDS011;11065;50.786;7.840;2023-08-12T00:55:26;5.53;;;3.20;;
21806;SDS011;11065;50.786;7.840;2023-08-12T00:57:54;4.17;;;3.30;;
21806;SDS011;11065;50.786;7.840;2023-08-12T01:00:22;4.63;;;3.47;;
21806;SDS011;11065;50.786;7.840;2023-08-12T01:02:51;5.63;;;3.53;;
21806;SDS011;11065;50.786;7.840;2023-08-12T01:05:19;6.97;;;3.53;;
21806;SDS011;11065;50.786;7.840;2023-08-12T01:07:47;3.70;;;3.13;;
21806;SDS011;11065;50.786;7.840;2023-08-12T01:10:17;7.03;;;3.77;;
21806;SDS011;11065;50.786;7.840;2023-08-12T01:12:47;6.97;;;3.80;;
21806;SDS011;11065;50.786;7.840;2023-08-12T01:15:20;4.93;;;3.23;;
21806;SDS011;11065;50.786;7.840;2023-08-12T01:17:50;7.37;;;3.70;;
21806;SDS011;11065;50.786;7.840;2023-08-12T01:20:20;4.13;;;3.33;;
21806;SDS011;11065;50.786;7.840;2023-08-12T01:22:52;7.30;;;4.80;;
21806;SDS011;11065;50.786;7.840;2023-08-12T01:25:25;5.93;;;3.90;;
21806;SDS011;11065;50.786;7.840;2023-08-12T01:27:53;6.23;;;3.70;;
21806;SDS011;11065;50.786;7.840;2023-08-12T01:30:22;6.37;;;3.83;;
21806;SDS011;11065;50.786;7.840;2023-08-12T01:32:57;6.17;;;4.20;;
21806;SDS011;11065;50.786;7.840;2023-08-12T01:35:33;6.33;;;4.27;;
21806;SDS011;11065;50.786;7.840;2023-08-12T01:38:04;8.17;;;4.80;;
21806;SDS011;11065;50.786;7.840;2023-08-12T01:40:36;7.37;;;4.80;;
21806;SDS011;11065;50.786;7.840;2023-08-12T01:43:06;5.93;;;4.60;;
21806;SDS011;11065;50.786;7.840;2023-08-12T01:45:35;5.97;;;3.90;;
21806;SDS011;11065;50.786;7.840;2023-08-12T01:48:03;6.00;;;3.97;;
21806;SDS011;11065;50.786;7.840;2023-08-12T01:50:33;8.53;;;4.20;;
21806;SDS011;11065;50.786;7.840;2023-08-12T01:53:01;8.53;;;4.37;;
21806;SDS011;11065;50.786;7.840;2023-08-12T01:55:29;6.60;;;4.80;;
21806;SDS011;11065;50.786;7.840;2023-08-12T01:57:58;5.80;;;4.40;;
21806;SDS011;11065;50.786;7.840;2023-08-12T02:00:26;5.93;;;5.00;;
21806;SDS011;11065;50.786;7.840;2023-08-12T02:02:54;7.03;;;4.60;;
21806;SDS011;11065;50.786;7.840;2023-08-12T02:05:22;7.57;;;4.57;;
21806;SDS011;11065;50.786;7.840;2023-08-12T02:07:50;5.93;;;4.73;;
21806;SDS011;11065;50.786;7.840;2023-08-12T02:10:18;7.07;;;4.63;;
21806;SDS011;11065;50.786;7.840;2023-08-12T02:12:46;5.30;;;4.30;;
21806;SDS011;11065;50.786;7.840;2023-08-12T02:15:15;6.00;;;4.53;;
21806;SDS011;11065;50.786;7.840;2023-08-12T02:17:43;6.13;;;4.60;;
21806;SDS011;11065;50.786;7.840;2023-08-12T02:20:11;9.17;;;5.47;;
21806;SDS011;11065;50.786;7.840;2023-08-12T02:22:39;8.47;;;5.80;;
21806;SDS011;11065;50.786;7.840;2023-08-12T02:25:07;8.87;;;6.20;;
21806;SDS011;11065;50.786;7.840;2023-08-12T02:27:35;7.37;;;6.13;;
21806;SDS011;11065;50.786;7.840;2023-08-12T02:30:03;9.97;;;6.30;;
21806;SDS011;11065;50.786;7.840;2023-08-12T02:32:33;8.50;;;6.47;;
21806;SDS011;11065;50.786;7.840;2023-08-12T02:35:03;7.57;;;5.83;;
21806;SDS011;11065;50.786;7.840;2023-08-12T02:37:31;6.03;;;5.17;;
21806;SDS011;11065;50.786;7.840;2023-08-12T02:39:59;6.83;;;4.93;;
21806;SDS011;11065;50.786;7.840;2023-08-12T02:42:30;7.53;;;5.57;;
21806;SDS011;11065;50.786;7.840;2023-08-12T02:44:58;7.63;;;6.50;;
21806;SDS011;11065;50.786;7.840;2023-08-12T02:47:27;8.30;;;6.90;;
21806;SDS011;11065;50.786;7.840;2023-08-12T02:49:56;11.40;;;7.70;;
21806;SDS011;11065;50.786;7.840;2023-08-12T02:52:25;8.90;;;7.97;;
21806;SDS011;11065;50.786;7.840;2023-08-12T02:54:53;10.07;;;7.73;;
21806;SDS011;11065;50.786;7.840;2023-08-12T02:57:22;10.93;;;8.60;;
21806;SDS011;11065;50.786;7.840;2023-08-12T02:59:50;8.80;;;7.43;;
21806;SDS011;11065;50.786;7.840;2023-08-12T03:02:18;9.57;;;7.93;;
21806;SDS011;11065;50.786;7.840;2023-08-12T03:04:46;8.00;;;6.50;;
21806;SDS011;11065;50.786;7.840;2023-08-12T03:07:15;7.57;;;6.47;;
21806;SDS011;11065;50.786;7.840;2023-08-12T03:09:43;7.37;;;6.57;;
21806;SDS011;11065;50.786;7.840;2023-08-12T03:12:11;8.13;;;6.33;;
21806;SDS011;11065;50.786;7.840;2023-08-12T03:14:39;6.67;;;5.80;;
21806;SDS011;11065;50.786;7.840;2023-08-12T03:17:08;7.07;;;5.83;;
21806;SDS011;11065;50.786;7.840;2023-08-12T03:19:37;7.70;;;6.67;;
21806;SDS011;11065;50.786;7.840;2023-08-12T03:22:05;7.30;;;6.07;;
21806;SDS011;11065;50.786;7.840;2023-08-12T03:24:37;7.40;;;6.63;;
21806;SDS011;11065;50.786;7.840;2023-08-12T03:27:05;6.93;;;6.23;;
21806;SDS011;11065;50.786;7.840;2023-08-12T03:29:33;7.63;;;6.13;;
21806;SDS011;11065;50.786;7.840;2023-08-12T03:32:01;6.60;;;5.83;;
21806;SDS011;11065;50.786;7.840;2023-08-12T03:34:29;6.67;;;5.97;;
21806;SDS011;11065;50.786;7.840;2023-08-12T03:36:58;5.63;;;5.00;;
21806;SDS011;11065;50.786;7.840;2023-08-12T03:39:26;6.17;;;5.57;;
21806;SDS011;11065;50.786;7.840;2023-08-12T03:41:55;5.97;;;5.30;;
21806;SDS011;11065;50.786;7.840;2023-08-12T03:44:23;6.50;;;5.43;;
21806;SDS011;11065;50.786;7.840;2023-08-12T03:46:52;6.83;;;6.13;;
21806;SDS011;11065;50.786;7.840;2023-08-12T03:49:20;7.30;;;6.07;;
21806;SDS011;11065;50.786;7.840;2023-08-12T03:51:48;6.80;;;5.73;;
21806;SDS011;11065;50.786;7.840;2023-08-12T03:54:16;7.60;;;6.13;;
21806;SDS011;11065;50.786;7.840;2023-08-12T03:56:45;9.80;;;7.47;;
21806;SDS011;11065;50.786;7.840;2023-08-12T03:59:14;9.37;;;7.43;;
21806;SDS011;11065;50.786;7.840;2023-08-12T04:01:42;8.27;;;6.07;;
21806;SDS011;11065;50.786;7.840;2023-08-12T04:04:10;6.57;;;5.97;;
21806;SDS011;11065;50.786;7.840;2023-08-12T04:06:40;6.67;;;5.73;;
21806;SDS011;11065;50.786;7.840;2023-08-12T04:09:07;6.70;;;5.97;;
21806;SDS011;11065;50.786;7.840;2023-08-12T04:11:36;10.13;;;7.47;;
21806;SDS011;11065;50.786;7.840;2023-08-12T04:14:03;8.83;;;7.53;;
21806;SDS011;11065;50.786;7.840;2023-08-12T04:16:33;7.97;;;7.17;;
21806;SDS011;11065;50.786;7.840;2023-08-12T04:19:01;8.63;;;7.47;;
21806;SDS011;11065;50.786;7.840;2023-08-12T04:21:29;8.80;;;7.40;;
21806;SDS011;11065;50.786;7.840;2023-08-12T04:23:57;8.43;;;7.53;;
21806;SDS011;11065;50.786;7.840;2023-08-12T04:26:24;8.50;;;7.60;;
21806;SDS011;11065;50.786;7.840;2023-08-12T04:28:53;10.70;;;6.47;;
21806;SDS011;11065;50.786;7.840;2023-08-12T04:31:22;7.67;;;6.77;;
21806;SDS011;11065;50.786;7.840;2023-08-12T04:33:51;8.17;;;6.93;;
21806;SDS011;11065;50.786;7.840;2023-08-12T04:36:22;7.70;;;6.90;;
21806;SDS011;11065;50.786;7.840;2023-08-12T04:38:50;8.20;;;6.97;;
21806;SDS011;11065;50.786;7.840;2023-08-12T04:41:19;8.17;;;7.17;;
21806;SDS011;11065;50.786;7.840;2023-08-12T04:43:51;8.43;;;7.53;;
21806;SDS011;11065;50.786;7.840;2023-08-12T04:46:21;8.90;;;6.90;;
21806;SDS011;11065;50.786;7.840;2023-08-12T04:48:51;8.23;;;7.37;;
21806;SDS011;11065;50.786;7.840;2023-08-12T04:51:19;8.17;;;7.37;;
21806;SDS011;11065;50.786;7.840;2023-08-12T04:53:47;9.20;;;7.63;;
21806;SDS011;11065;50.786;7.840;2023-08-12T04:56:15;7.50;;;6.73;;
21806;SDS011;11065;50.786;7.840;2023-08-12T04:58:44;6.83;;;6.13;;
21806;SDS011;11065;50.786;7.840;2023-08-12T05:01:12;8.27;;;7.07;;
21806;SDS011;11065;50.786;7.840;2023-08-12T05:03:41;7.50;;;6.70;;
21806;SDS011;11065;50.786;7.840;2023-08-12T05:06:10;8.20;;;7.20;;
21806;SDS011;11065;50.786;7.840;2023-08-12T05:08:38;8.77;;;7.30;;
21806;SDS011;11065;50.786;7.840;2023-08-12T05:11:06;9.10;;;7.70;;
21806;SDS011;11065;50.786;7.840;2023-08-12T05:13:34;8.53;;;7.30;;
21806;SDS011;11065;50.786;7.840;2023-08-12T05:16:02;9.60;;;6.97;;
21806;SDS011;11065;50.786;7.840;2023-08-12T05:18:31;8.83;;;7.93;;
21806;SDS011;11065;50.786;7.840;2023-08-12T05:20:59;7.87;;;7.07;;
21806;SDS011;11065;50.786;7.840;2023-08-12T05:23:29;9.33;;;8.07;;
21806;SDS011;11065;50.786;7.840;2023-08-12T05:25:57;9.80;;;8.50;;
21806;SDS011;11065;50.786;7.840;2023-08-12T05:28:24;8.80;;;7.90;;
21806;SDS011;11065;50.786;7.840;2023-08-12T05:30:52;8.77;;;7.87;;
21806;SDS011;11065;50.786;7.840;2023-08-12T05:33:21;8.70;;;7.80;;
21806;SDS011;11065;50.786;7.840;2023-08-12T05:35:49;9.37;;;7.60;;
21806;SDS011;11065;50.786;7.840;2023-08-12T05:38:17;10.00;;;7.47;;
21806;SDS011;11065;50.786;7.840;2023-08-12T05:40:46;9.80;;;8.07;;
21806;SDS011;11065;50.786;7.840;2023-08-12T05:43:14;8.80;;;7.47;;
21806;SDS011;11065;50.786;7.840;2023-08-12T05:45:42;11.97;;;7.63;;
21806;SDS011;11065;50.786;7.840;2023-08-12T05:48:10;9.30;;;8.33;;
21806;SDS011;11065;50.786;7.840;2023-08-12T05:50:38;10.00;;;8.50;;
21806;SDS011;11065;50.786;7.840;2023-08-12T05:53:06;10.77;;;9.47;;
21806;SDS011;11065;50.786;7.840;2023-08-12T05:55:34;10.23;;;9.13;;
21806;SDS011;11065;50.786;7.840;2023-08-12T05:58:03;10.90;;;9.20;;
21806;SDS011;11065;50.786;7.840;2023-08-12T06:00:32;10.20;;;8.77;;
21806;SDS011;11065;50.786;7.840;2023-08-12T06:02:59;11.07;;;8.73;;
21806;SDS011;11065;50.786;7.840;2023-08-12T06:05:27;11.10;;;9.00;;
21806;SDS011;11065;50.786;7.840;2023-08-12T06:07:55;9.60;;;8.27;;
21806;SDS011;11065;50.786;7.840;2023-08-12T06:10:23;10.00;;;8.83;;
21806;SDS011;11065;50.786;7.840;2023-08-12T06:12:51;10.23;;;9.17;;
21806;SDS011;11065;50.786;7.840;2023-08-12T06:15:21;9.53;;;8.53;;
21806;SDS011;11065;50.786;7.840;2023-08-12T06:17:48;10.23;;;8.40;;
21806;SDS011;11065;50.786;7.840;2023-08-12T06:20:16;9.77;;;7.87;;
21806;SDS011;11065;50.786;7.840;2023-08-12T06:22:44;10.77;;;9.63;;
21806;SDS011;11065;50.786;7.840;2023-08-12T06:25:12;9.97;;;8.40;;
21806;SDS011;11065;50.786;7.840;2023-08-12T06:27:41;9.67;;;7.67;;
21806;SDS011;11065;50.786;7.840;2023-08-12T06:30:09;10.43;;;8.23;;
21806;SDS011;11065;50.786;7.840;2023-08-12T06:32:39;8.13;;;7.33;;
21806;SDS011;11065;50.786;7.840;2023-08-12T06:35:07;8.70;;;7.67;;
21806;SDS011;11065;50.786;7.840;2023-08-12T06:37:35;8.40;;;7.33;;
21806;SDS011;11065;50.786;7.840;2023-08-12T06:40:04;8.37;;;7.53;;
21806;SDS011;11065;50.786;7.840;2023-08-12T06:42:32;9.37;;;8.37;;
21806;SDS011;11065;50.786;7.840;2023-08-12T06:45:00;9.23;;;7.40;;
21806;SDS011;11065;50.786;7.840;2023-08-12T06:47:30;7.93;;;7.13;;
21806;SDS011;11065;50.786;7.840;2023-08-12T06:49:59;8.70;;;6.90;;
21806;SDS011;11065;50.786;7.840;2023-08-12T06:52:28;9.10;;;7.00;;
21806;SDS011;11065;50.786;7.840;2023-08-12T06:54:56;8.30;;;6.70;;
21806;SDS011;11065;50.786;7.840;2023-08-12T06:57:24;6.87;;;6.17;;
21806;SDS011;11065;50.786;7.840;2023-08-12T06:59:52;7.33;;;6.33;;
21806;SDS011;11065;50.786;7.840;2023-08-12T07:02:20;9.30;;;6.40;;
21806;SDS011;11065;50.786;7.840;2023-08-12T07:04:47;8.70;;;6.57;;
21806;SDS011;11065;50.786;7.840;2023-08-12T07:07:17;8.47;;;6.63;;
21806;SDS011;11065;50.786;7.840;2023-08-12T07:09:45;7.33;;;6.30;;
21806;SDS011;11065;50.786;7.840;2023-08-12T07:12:13;6.37;;;5.67;;
21806;SDS011;11065;50.786;7.840;2023-08-12T07:14:40;6.60;;;5.77;;
21806;SDS011;11065;50.786;7.840;2023-08-12T07:17:08;8.17;;;5.93;;
21806;SDS011;11065;50.786;7.840;2023-08-12T07:19:36;7.20;;;5.87;;
21806;SDS011;11065;50.786;7.840;2023-08-12T07:22:04;7.53;;;5.53;;
21806;SDS011;11065;50.786;7.840;2023-08-12T07:24:34;7.07;;;5.43;;
21806;SDS011;11065;50.786;7.840;2023-08-12T07:27:02;5.17;;;4.67;;
21806;SDS011;11065;50.786;7.840;2023-08-12T07:29:33;6.03;;;5.37;;
21806;SDS011;11065;50.786;7.840;2023-08-12T07:32:01;6.30;;;5.60;;
21806;SDS011;11065;50.786;7.840;2023-08-12T07:34:28;6.17;;;5.57;;
21806;SDS011;11065;50.786;7.840;2023-08-12T07:36:57;5.13;;;4.43;;
21806;SDS011;11065;50.786;7.840;2023-08-12T07:39:25;5.53;;;3.83;;
21806;SDS011;11065;50.786;7.840;2023-08-12T07:41:54;5.87;;;4.27;;
21806;SDS011;11065;50.786;7.840;2023-08-12T07:44:22;4.33;;;3.70;;
21806;SDS011;11065;50.786;7.840;2023-08-12T07:46:50;3.87;;;3.40;;
21806;SDS011;11065;50.786;7.840;2023-08-12T07:49:18;4.20;;;2.57;;
21806;SDS011;11065;50.786;7.840;2023-08-12T07:51:46;2.97;;;2.17;;
21806;SDS011;11065;50.786;7.840;2023-08-12T07:54:14;2.87;;;2.10;;
21806;SDS011;11065;50.786;7.840;2023-08-12T07:56:42;2.90;;;1.90;;
21806;SDS011;11065;50.786;7.840;2023-08-12T07:59:11;4.10;;;2.03;;
21806;SDS011;11065;50.786;7.840;2023-08-12T08:01:39;2.77;;;2.10;;
21806;SDS011;11065;50.786;7.840;2023-08-12T08:04:07;3.73;;;2.00;;
21806;SDS011;11065;50.786;7.840;2023-08-12T08:06:35;3.93;;;1.70;;
21806;SDS011;11065;50.786;7.840;2023-08-12T08:09:04;3.10;;;2.13;;
21806;SDS011;11065;50.786;7.840;2023-08-12T08:11:32;3.17;;;2.30;;
21806;SDS011;11065;50.786;7.840;2023-08-12T08:14:00;3.73;;;1.90;;
21806;SDS011;11065;50.786;7.840;2023-08-12T08:16:30;4.28;;;1.88;;
21806;SDS011;11065;50.786;7.840;2023-08-12T08:18:58;2.55;;;1.83;;
21806;SDS011;11065;50.786;7.840;2023-08-12T08:21:26;6.57;;;2.00;;
21806;SDS011;11065;50.786;7.840;2023-08-12T08:23:54;3.17;;;1.92;;
21806;SDS011;11065;50.786;7.840;2023-08-12T08:26:22;2.58;;;2.00;;
21806;SDS011;11065;50.786;7.840;2023-08-12T08:28:50;4.07;;;2.15;;
21806;SDS011;11065;50.786;7.840;2023-08-12T08:31:18;3.15;;;1.90;;
21806;SDS011;11065;50.786;7.840;2023-08-12T08:33:48;1.83;;;1.63;;
21806;SDS011;11065;50.786;7.840;2023-08-12T08:36:16;2.80;;;1.73;;
21806;SDS011;11065;50.786;7.840;2023-08-12T08:38:44;2.20;;;1.35;;
21806;SDS011;11065;50.786;7.840;2023-08-12T08:41:12;1.98;;;1.52;;
21806;SDS011;11065;50.786;7.840;2023-08-12T08:43:43;2.83;;;1.52;;
21806;SDS011;11065;50.786;7.840;2023-08-12T08:46:12;2.72;;;1.95;;
21806;SDS011;11065;50.786;7.840;2023-08-12T08:48:42;1.70;;;1.42;;
21806;SDS011;11065;50.786;7.840;2023-08-12T08:51:11;2.03;;;1.58;;
21806;SDS011;11065;50.786;7.840;2023-08-12T08:53:40;1.80;;;1.45;;
21806;SDS011;11065;50.786;7.840;2023-08-12T08:56:11;2.38;;;1.50;;
21806;SDS011;11065;50.786;7.840;2023-08-12T08:58:41;2.17;;;1.52;;
21806;SDS011;11065;50.786;7.840;2023-08-12T09:01:09;3.13;;;1.42;;
21806;SDS011;11065;50.786;7.840;2023-08-12T09:03:38;4.90;;;1.40;;
21806;SDS011;11065;50.786;7.840;2023-08-12T09:06:07;2.63;;;1.50;;
21806;SDS011;11065;50.786;7.840;2023-08-12T09:08:36;2.33;;;1.48;;
21806;SDS011;11065;50.786;7.840;2023-08-12T09:11:06;2.00;;;1.45;;
21806;SDS011;11065;50.786;7.840;2023-08-12T09:13:35;2.17;;;1.60;;
21806;SDS011;11065;50.786;7.840;2023-08-12T09:16:03;2.20;;;1.58;;
21806;SDS011;11065;50.786;7.840;2023-08-12T09:18:31;2.38;;;1.90;;
21806;SDS011;11065;50.786;7.840;2023-08-12T09:20:59;1.85;;;1.40;;
21806;SDS011;11065;50.786;7.840;2023-08-12T09:23:27;3.10;;;1.70;;
21806;SDS011;11065;50.786;7.840;2023-08-12T09:25:56;1.95;;;1.30;;
21806;SDS011;11065;50.786;7.840;2023-08-12T09:28:24;2.05;;;1.23;;
21806;SDS011;11065;50.786;7.840;2023-08-12T09:30:52;2.60;;;1.40;;
21806;SDS011;11065;50.786;7.840;2023-08-12T09:33:23;4.13;;;2.08;;
21806;SDS011;11065;50.786;7.840;2023-08-12T09:35:52;2.25;;;1.48;;
21806;SDS011;11065;50.786;7.840;2023-08-12T09:38:23;3.28;;;1.58;;
21806;SDS011;11065;50.786;7.840;2023-08-12T09:40:51;2.33;;;1.50;;
21806;SDS011;11065;50.786;7.840;2023-08-12T09:43:24;1.80;;;1.40;;
21806;SDS011;11065;50.786;7.840;2023-08-12T09:45:55;2.28;;;1.48;;
21806;SDS011;11065;50.786;7.840;2023-08-12T09:48:24;3.00;;;1.23;;
21806;SDS011;11065;50.786;7.840;2023-08-12T09:50:52;1.95;;;1.33;;
21806;SDS011;11065;50.786;7.840;2023-08-12T09:53:21;2.85;;;1.40;;
21806;SDS011;11065;50.786;7.840;2023-08-12T09:55:49;2.13;;;1.23;;
21806;SDS011;11065;50.786;7.840;2023-08-12T09:58:20;4.30;;;1.30;;
21806;SDS011;11065;50.786;7.840;2023-08-12T10:00:52;3.22;;;1.30;;
21806;SDS011;11065;50.786;7.840;2023-08-12T10:03:21;3.70;;;1.85;;
21806;SDS011;11065;50.786;7.840;2023-08-12T10:05:50;2.10;;;1.40;;
21806;SDS011;11065;50.786;7.840;2023-08-12T10:08:19;2.35;;;1.20;;
21806;SDS011;11065;50.786;7.840;2023-08-12T10:10:48;2.85;;;1.50;;
21806;SDS011;11065;50.786;7.840;2023-08-12T10:13:37;2.38;;;1.52;;
21806;SDS011;11065;50.786;7.840;2023-08-12T10:16:05;3.28;;;1.33;;
21806;SDS011;11065;50.786;7.840;2023-08-12T10:18:36;2.05;;;1.08;;
21806;SDS011;11065;50.786;7.840;2023-08-12T10:21:05;2.38;;;1.40;;
21806;SDS011;11065;50.786;7.840;2023-08-12T10:23:37;1.40;;;1.10;;
21806;SDS011;11065;50.786;7.840;2023-08-12T10:26:05;2.80;;;1.40;;
21806;SDS011;11065;50.786;7.840;2023-08-12T10:28:34;2.33;;;1.58;;
21806;SDS011;11065;50.786;7.840;2023-08-12T10:31:05;2.08;;;1.50;;
21806;SDS011;11065;50.786;7.840;2023-08-12T10:33:37;2.88;;;1.40;;
21806;SDS011;11065;50.786;7.840;2023-08-12T10:36:05;2.28;;;1.58;;
21806;SDS011;11065;50.786;7.840;2023-08-12T10:38:33;3.28;;;1.95;;
21806;SDS011;11065;50.786;7.840;2023-08-12T10:41:17;3.22;;;1.77;;
21806;SDS011;11065;50.786;7.840;2023-08-12T10:43:51;3.05;;;1.80;;
21806;SDS011;11065;50.786;7.840;2023-08-12T10:46:22;2.83;;;1.42;;
21806;SDS011;11065;50.786;7.840;2023-08-12T10:48:56;3.28;;;1.80;;
21806;SDS011;11065;50.786;7.840;2023-08-12T10:54:14;2.38;;;1.25;;
21806;SDS011;11065;50.786;7.840;2023-08-12T10:59:46;2.63;;;1.58;;
21806;SDS011;11065;50.786;7.840;2023-08-12T11:02:21;2.30;;;1.38;;
21806;SDS011;11065;50.786;7.840;2023-08-12T11:04:54;1.75;;;1.20;;
21806;SDS011;11065;50.786;7.840;2023-08-12T11:07:27;2.00;;;1.40;;
21806;SDS011;11065;50.786;7.840;2023-08-12T11:10:03;3.58;;;1.48;;
21806;SDS011;11065;50.786;7.840;2023-08-12T11:12:34;4.43;;;1.38;;
21806;SDS011;11065;50.786;7.840;2023-08-12T11:15:03;2.35;;;1.40;;
21806;SDS011;11065;50.786;7.840;2023-08-12T11:17:33;2.55;;;1.58;;
21806;SDS011;11065;50.786;7.840;2023-08-12T11:20:03;3.42;;;1.92;;
21806;SDS011;11065;50.786;7.840;2023-08-12T11:22:33;2.30;;;1.40;;
21806;SDS011;11065;50.786;7.840;2023-08-12T11:25:04;2.97;;;1.80;;
21806;SDS011;11065;50.786;7.840;2023-08-12T11:27:36;3.65;;;1.60;;
21806;SDS011;11065;50.786;7.840;2023-08-12T11:30:05;2.33;;;1.45;;
21806;SDS011;11065;50.786;7.840;2023-08-12T11:32:36;2.15;;;1.50;;
21806;SDS011;11065;50.786;7.840;2023-08-12T11:35:05;2.83;;;1.48;;
21806;SDS011;11065;50.786;7.840;2023-08-12T11:37:35;2.53;;;1.48;;
21806;SDS011;11065;50.786;7.840;2023-08-12T11:40:04;3.88;;;1.42;;
21806;SDS011;11065;50.786;7.840;2023-08-12T11:42:35;2.75;;;1.88;;
21806;SDS011;11065;50.786;7.840;2023-08-12T11:45:04;2.72;;;1.80;;
21806;SDS011;11065;50.786;7.840;2023-08-12T11:47:35;3.60;;;1.63;;
21806;SDS011;11065;50.786;7.840;2023-08-12T11:50:05;2.67;;;1.40;;
21806;SDS011;11065;50.786;7.840;2023-08-12T11:52:35;2.13;;;1.30;;
21806;SDS011;11065;50.786;7.840;2023-08-12T11:55:04;3.03;;;1.73;;
21806;SDS011;11065;50.786;7.840;2023-08-12T11:57:33;2.10;;;1.58;;
21806;SDS011;11065;50.786;7.840;2023-08-12T12:00:02;3.08;;;1.40;;
21806;SDS011;11065;50.786;7.840;2023-08-12T12:02:41;2.65;;;1.50;;
21806;SDS011;11065;50.786;7.840;2023-08-12T12:05:15;2.45;;;1.50;;
21806;SDS011;11065;50.786;7.840;2023-08-12T12:07:44;2.63;;;1.63;;
21806;SDS011;11065;50.786;7.840;2023-08-12T12:10:12;2.65;;;1.52;;
21806;SDS011;11065;50.786;7.840;2023-08-12T12:12:41;2.88;;;1.73;;
21806;SDS011;11065;50.786;7.840;2023-08-12T12:15:12;4.03;;;1.65;;
21806;SDS011;11065;50.786;7.840;2023-08-12T12:17:44;2.55;;;1.40;;
21806;SDS011;11065;50.786;7.840;2023-08-12T12:20:12;3.42;;;1.42;;
21806;SDS011;11065;50.786;7.840;2023-08-12T12:22:41;2.78;;;1.38;;
21806;SDS011;11065;50.786;7.840;2023-08-12T12:25:11;4.40;;;1.58;;
21806;SDS011;11065;50.786;7.840;2023-08-12T12:27:40;3.47;;;1.67;;
21806;SDS011;11065;50.786;7.840;2023-08-12T12:30:12;4.00;;;1.50;;
21806;SDS011;11065;50.786;7.840;2023-08-12T12:32:41;2.58;;;1.00;;
21806;SDS011;11065;50.786;7.840;2023-08-12T12:35:10;2.80;;;1.20;;
21806;SDS011;11065;50.786;7.840;2023-08-12T12:37:38;2.47;;;1.30;;
21806;SDS011;11065;50.786;7.840;2023-08-12T12:40:07;3.28;;;1.33;;
21806;SDS011;11065;50.786;7.840;2023-08-12T12:42:36;2.35;;;1.30;;
21806;SDS011;11065;50.786;7.840;2023-08-12T12:45:05;2.72;;;1.50;;
21806;SDS011;11065;50.786;7.840;2023-08-12T12:47:34;2.22;;;1.20;;
21806;SDS011;11065;50.786;7.840;2023-08-12T12:50:02;2.08;;;1.30;;
21806;SDS011;11065;50.786;7.840;2023-08-12T12:52:32;1.77;;;1.35;;
21806;SDS011;11065;50.786;7.840;2023-08-12T12:55:00;2.67;;;1.70;;
21806;SDS011;11065;50.786;7.840;2023-08-12T12:57:30;2.00;;;1.42;;
21806;SDS011;11065;50.786;7.840;2023-08-12T12:59:58;2.20;;;1.60;;
21806;SDS011;11065;50.786;7.840;2023-08-12T13:02:26;2.70;;;1.42;;
21806;SDS011;11065;50.786;7.840;2023-08-12T13:04:54;3.97;;;1.42;;
21806;SDS011;11065;50.786;7.840;2023-08-12T13:07:23;2.50;;;1.80;;
21806;SDS011;11065;50.786;7.840;2023-08-12T13:09:52;2.10;;;1.52;;
21806;SDS011;11065;50.786;7.840;2023-08-12T13:12:20;3.00;;;1.75;;
21806;SDS011;11065;50.786;7.840;2023-08-12T13:14:48;2.85;;;1.70;;
21806;SDS011;11065;50.786;7.840;2023-08-12T13:17:16;2.15;;;1.63;;
21806;SDS011;11065;50.786;7.840;2023-08-12T13:19:44;2.55;;;1.40;;
21806;SDS011;11065;50.786;7.840;2023-08-12T13:22:12;2.03;;;1.40;;
21806;SDS011;11065;50.786;7.840;2023-08-12T13:24:40;1.55;;;1.30;;
21806;SDS011;11065;50.786;7.840;2023-08-12T13:27:09;3.08;;;1.90;;
21806;SDS011;11065;50.786;7.840;2023-08-12T13:29:39;2.17;;;1.40;;
21806;SDS011;11065;50.786;7.840;2023-08-12T13:32:07;2.20;;;1.60;;
21806;SDS011;11065;50.786;7.840;2023-08-12T13:34:35;2.70;;;1.70;;
21806;SDS011;11065;50.786;7.840;2023-08-12T13:37:03;2.95;;;1.77;;
21806;SDS011;11065;50.786;7.840;2023-08-12T13:39:32;3.35;;;1.80;;
21806;SDS011;11065;50.786;7.840;2023-08-12T13:42:00;5.28;;;1.73;;
21806;SDS011;11065;50.786;7.840;2023-08-12T13:44:30;2.97;;;1.90;;
21806;SDS011;11065;50.786;7.840;2023-08-12T13:46:58;2.00;;;1.50;;
21806;SDS011;11065;50.786;7.840;2023-08-12T13:49:26;4.15;;;1.45;;
21806;SDS011;11065;50.786;7.840;2023-08-12T13:51:54;2.58;;;1.58;;
21806;SDS011;11065;50.786;7.840;2023-08-12T13:54:22;3.20;;;1.70;;
21806;SDS011;11065;50.786;7.840;2023-08-12T13:56:49;3.85;;;1.67;;
21806;SDS011;11065;50.786;7.840;2023-08-12T13:59:17;2.20;;;1.60;;
21806;SDS011;11065;50.786;7.840;2023-08-12T14:01:47;2.08;;;1.40;;
21806;SDS011;11065;50.786;7.840;2023-08-12T14:04:15;2.85;;;1.80;;
21806;SDS011;11065;50.786;7.840;2023-08-12T14:06:43;3.50;;;1.67;;
21806;SDS011;11065;50.786;7.840;2023-08-12T14:09:10;2.53;;;1.60;;
21806;SDS011;11065;50.786;7.840;2023-08-12T14:11:40;2.38;;;1.80;;
21806;SDS011;11065;50.786;7.840;2023-08-12T14:14:08;2.30;;;1.70;;
21806;SDS011;11065;50.786;7.840;2023-08-12T14:16:36;2.72;;;1.80;;
21806;SDS011;11065;50.786;7.840;2023-08-12T14:19:05;6.63;;;1.80;;
21806;SDS011;11065;50.786;7.840;2023-08-12T14:21:33;2.38;;;1.73;;
21806;SDS011;11065;50.786;7.840;2023-08-12T14:24:01;2.88;;;1.60;;
21806;SDS011;11065;50.786;7.840;2023-08-12T14:26:30;2.47;;;2.00;;
21806;SDS011;11065;50.786;7.840;2023-08-12T14:28:58;3.58;;;1.60;;
21806;SDS011;11065;50.786;7.840;2023-08-12T14:31:26;3.00;;;1.50;;
21806;SDS011;11065;50.786;7.840;2023-08-12T14:33:54;2.78;;;1.58;;
21806;SDS011;11065;50.786;7.840;2023-08-12T14:36:23;2.22;;;1.55;;
21806;SDS011;11065;50.786;7.840;2023-08-12T14:38:52;2.28;;;1.38;;
21806;SDS011;11065;50.786;7.840;2023-08-12T14:41:20;2.28;;;1.20;;
21806;SDS011;11065;50.786;7.840;2023-08-12T14:43:48;2.67;;;1.50;;
21806;SDS011;11065;50.786;7.840;2023-08-12T14:46:16;1.85;;;1.25;;
21806;SDS011;11065;50.786;7.840;2023-08-12T14:48:44;2.10;;;1.20;;
21806;SDS011;11065;50.786;7.840;2023-08-12T14:51:12;1.38;;;1.00;;
21806;SDS011;11065;50.786;7.840;2023-08-12T14:53:41;2.88;;;1.70;;
21806;SDS011;11065;50.786;7.840;2023-08-12T14:56:09;1.73;;;1.17;;
21806;SDS011;11065;50.786;7.840;2023-08-12T14:58:37;2.78;;;1.00;;
21806;SDS011;11065;50.786;7.840;2023-08-12T15:01:05;3.10;;;1.40;;
21806;SDS011;11065;50.786;7.840;2023-08-12T15:03:33;1.00;;;0.80;;